sensor_id;sensor_type;location;lat;lon;timestamp;temperature;humidity
22923;DHT22;11627;51.322;22.816;2023-05-20T00:00:24;11.80;99.90
22923;DHT22;11627;51.322;22.816;2023-05-20T00:02:50;11.80;99.90
22923;DHT22;11627;51.322;22.816;2023-05-20T00:05:15;11.80;99.90
22923;DHT22;11627;51.322;22.816;2023-05-20T00:07:41;11.90;99.90
22923;DHT22;11627;51.322;22.816;2023-05-20T00:10:07;11.90;99.90
22923;DHT22;11627;51.322;22.816;2023-05-20T00:12:33;11.90;99.90
22923;DHT22;11627;51.322;22.816;2023-05-20T00:15:00;11.90;99.90
22923;DHT22;11627;51.322;22.816;2023-05-20T00:17:26;11.90;99.90
22923;DHT22;11627;51.322;22.816;2023-05-20T00:19:53;11.80;99.90
22923;DHT22;11627;51.322;22.816;2023-05-20T00:22:19;11.90;99.90
22923;DHT22;11627;51.322;22.816;2023-05-20T00:24:44;11.90;99.90
22923;DHT22;11627;51.322;22.816;2023-05-20T00:27:10;11.90;99.90
22923;DHT22;11627;51.322;22.816;2023-05-20T00:29:36;11.90;99.90
22923;DHT22;11627;51.322;22.816;2023-05-20T00:32:02;11.90;99.90
22923;DHT22;11627;51.322;22.816;2023-05-20T00:34:27;11.80;99.90
22923;DHT22;11627;51.322;22.816;2023-05-20T00:36:53;11.80;99.90
22923;DHT22;11627;51.322;22.816;2023-05-20T00:39:19;11.80;99.90
22923;DHT22;11627;51.322;22.816;2023-05-20T00:41:45;11.70;99.90
22923;DHT22;11627;51.322;22.816;2023-05-20T00:44:10;11.70;99.90
22923;DHT22;11627;51.322;22.816;2023-05-20T00:46:36;11.70;99.90
22923;DHT22;11627;51.322;22.816;2023-05-20T00:49:02;11.70;99.90
22923;DHT22;11627;51.322;22.816;2023-05-20T00:51:28;11.70;99.90
22923;DHT22;11627;51.322;22.816;2023-05-20T00:53:54;11.60;99.90
22923;DHT22;11627;51.322;22.816;2023-05-20T00:56:20;11.60;99.90
22923;DHT22;11627;51.322;22.816;2023-05-20T00:58:47;11.50;99.90
22923;DHT22;11627;51.322;22.816;2023-05-20T01:01:13;11.50;99.90
22923;DHT22;11627;51.322;22.816;2023-05-20T01:03:39;11.50;99.90
22923;DHT22;11627;51.322;22.816;2023-05-20T01:06:05;11.40;99.90
22923;DHT22;11627;51.322;22.816;2023-05-20T01:08:32;11.40;99.90
22923;DHT22;11627;51.322;22.816;2023-05-20T01:13:32;11.40;99.90
22923;DHT22;11627;51.322;22.816;2023-05-20T01:16:00;11.30;99.90
22923;DHT22;11627;51.322;22.816;2023-05-20T01:18:27;11.20;99.90
22923;DHT22;11627;51.322;22.816;2023-05-20T01:20:56;11.20;99.90
22923;DHT22;11627;51.322;22.816;2023-05-20T01:23:37;11.10;99.90
22923;DHT22;11627;51.322;22.816;2023-05-20T01:26:04;11.10;99.90
22923;DHT22;11627;51.322;22.816;2023-05-20T01:28:32;11.00;99.90
22923;DHT22;11627;51.322;22.816;2023-05-20T01:31:00;10.90;99.90
22923;DHT22;11627;51.322;22.816;2023-05-20T01:33:28;10.90;99.90
22923;DHT22;11627;51.322;22.816;2023-05-20T01:35:55;10.90;99.90
22923;DHT22;11627;51.322;22.816;2023-05-20T01:38:22;10.90;99.90
22923;DHT22;11627;51.322;22.816;2023-05-20T01:40:50;10.90;99.90
22923;DHT22;11627;51.322;22.816;2023-05-20T01:43:17;10.90;99.90
22923;DHT22;11627;51.322;22.816;2023-05-20T01:45:43;10.90;99.90
22923;DHT22;11627;51.322;22.816;2023-05-20T01:48:10;10.90;99.90
22923;DHT22;11627;51.322;22.816;2023-05-20T01:50:36;10.80;99.90
22923;DHT22;11627;51.322;22.816;2023-05-20T01:53:02;10.80;99.90
22923;DHT22;11627;51.322;22.816;2023-05-20T01:55:28;10.70;99.90
22923;DHT22;11627;51.322;22.816;2023-05-20T01:57:54;10.80;99.90
22923;DHT22;11627;51.322;22.816;2023-05-20T02:00:20;10.70;99.90
22923;DHT22;11627;51.322;22.816;2023-05-20T02:02:45;10.70;99.90
22923;DHT22;11627;51.322;22.816;2023-05-20T02:05:11;10.60;99.90
22923;DHT22;11627;51.322;22.816;2023-05-20T02:07:37;10.70;99.90
22923;DHT22;11627;51.322;22.816;2023-05-20T02:10:03;10.70;99.90
22923;DHT22;11627;51.322;22.816;2023-05-20T02:12:29;10.70;99.90
22923;DHT22;11627;51.322;22.816;2023-05-20T02:14:55;10.70;99.90
22923;DHT22;11627;51.322;22.816;2023-05-20T02:17:20;10.70;99.90
22923;DHT22;11627;51.322;22.816;2023-05-20T02:19:46;10.70;99.90
22923;DHT22;11627;51.322;22.816;2023-05-20T02:22:12;10.60;99.90
22923;DHT22;11627;51.322;22.816;2023-05-20T02:24:38;10.60;99.90
22923;DHT22;11627;51.322;22.816;2023-05-20T02:27:05;10.60;99.90
22923;DHT22;11627;51.322;22.816;2023-05-20T02:29:31;10.50;99.90
22923;DHT22;11627;51.322;22.816;2023-05-20T02:31:57;10.50;99.90
22923;DHT22;11627;51.322;22.816;2023-05-20T02:34:23;10.50;99.90
22923;DHT22;11627;51.322;22.816;2023-05-20T02:36:50;10.50;99.90
22923;DHT22;11627;51.322;22.816;2023-05-20T02:39:17;10.50;99.90
22923;DHT22;11627;51.322;22.816;2023-05-20T02:41:42;10.50;99.90
22923;DHT22;11627;51.322;22.816;2023-05-20T02:44:08;10.40;99.90
22923;DHT22;11627;51.322;22.816;2023-05-20T02:46:34;10.30;99.90
22923;DHT22;11627;51.322;22.816;2023-05-20T02:49:00;10.30;99.90
22923;DHT22;11627;51.322;22.816;2023-05-20T02:51:25;10.30;99.90
22923;DHT22;11627;51.322;22.816;2023-05-20T02:53:51;10.20;99.90
22923;DHT22;11627;51.322;22.816;2023-05-20T02:56:17;10.20;99.90
22923;DHT22;11627;51.322;22.816;2023-05-20T02:58:46;10.20;99.90
22923;DHT22;11627;51.322;22.816;2023-05-20T03:01:12;10.20;99.90
22923;DHT22;11627;51.322;22.816;2023-05-20T03:03:37;10.30;99.90
22923;DHT22;11627;51.322;22.816;2023-05-20T03:06:05;10.30;99.90
22923;DHT22;11627;51.322;22.816;2023-05-20T03:08:32;10.30;99.90
22923;DHT22;11627;51.322;22.816;2023-05-20T03:10:59;10.30;99.90
22923;DHT22;11627;51.322;22.816;2023-05-20T03:13:25;10.40;99.90
22923;DHT22;11627;51.322;22.816;2023-05-20T03:15:50;10.40;99.90
22923;DHT22;11627;51.322;22.816;2023-05-20T03:18:17;10.50;99.90
22923;DHT22;11627;51.322;22.816;2023-05-20T03:20:42;10.50;99.90
22923;DHT22;11627;51.322;22.816;2023-05-20T03:23:09;10.50;99.90
22923;DHT22;11627;51.322;22.816;2023-05-20T03:25:36;10.50;99.90
22923;DHT22;11627;51.322;22.816;2023-05-20T03:28:02;10.50;99.90
22923;DHT22;11627;51.322;22.816;2023-05-20T03:30:28;10.50;99.90
22923;DHT22;11627;51.322;22.816;2023-05-20T03:32:54;10.60;99.90
22923;DHT22;11627;51.322;22.816;2023-05-20T03:35:22;10.60;99.90
22923;DHT22;11627;51.322;22.816;2023-05-20T03:37:48;10.70;99.90
22923;DHT22;11627;51.322;22.816;2023-05-20T03:40:16;10.70;99.90
22923;DHT22;11627;51.322;22.816;2023-05-20T03:42:41;10.70;99.90
22923;DHT22;11627;51.322;22.816;2023-05-20T03:45:08;10.80;99.90
22923;DHT22;11627;51.322;22.816;2023-05-20T03:47:34;11.00;99.90
22923;DHT22;11627;51.322;22.816;2023-05-20T03:49:59;11.00;99.90
22923;DHT22;11627;51.322;22.816;2023-05-20T03:52:25;11.10;99.90
22923;DHT22;11627;51.322;22.816;2023-05-20T03:54:52;11.10;99.90
22923;DHT22;11627;51.322;22.816;2023-05-20T03:57:17;11.20;99.90
22923;DHT22;11627;51.322;22.816;2023-05-20T03:59:44;11.20;99.90
22923;DHT22;11627;51.322;22.816;2023-05-20T04:02:10;11.30;99.90
22923;DHT22;11627;51.322;22.816;2023-05-20T04:04:36;11.30;99.90
22923;DHT22;11627;51.322;22.816;2023-05-20T04:07:02;11.40;99.90
22923;DHT22;11627;51.322;22.816;2023-05-20T04:09:29;11.40;99.90
22923;DHT22;11627;51.322;22.816;2023-05-20T04:11:55;11.50;99.90
22923;DHT22;11627;51.322;22.816;2023-05-20T04:14:21;11.50;99.90
22923;DHT22;11627;51.322;22.816;2023-05-20T04:16:47;11.60;99.90
22923;DHT22;11627;51.322;22.816;2023-05-20T04:19:14;11.70;99.90
22923;DHT22;11627;51.322;22.816;2023-05-20T04:21:42;11.70;99.90
22923;DHT22;11627;51.322;22.816;2023-05-20T04:24:08;11.70;99.90
22923;DHT22;11627;51.322;22.816;2023-05-20T04:26:34;11.80;99.90
22923;DHT22;11627;51.322;22.816;2023-05-20T04:29:01;11.80;99.90
22923;DHT22;11627;51.322;22.816;2023-05-20T04:31:29;11.90;99.90
22923;DHT22;11627;51.322;22.816;2023-05-20T04:33:55;12.00;99.90
22923;DHT22;11627;51.322;22.816;2023-05-20T04:36:21;12.10;99.90
22923;DHT22;11627;51.322;22.816;2023-05-20T04:38:56;12.10;99.90
22923;DHT22;11627;51.322;22.816;2023-05-20T04:41:21;12.30;99.90
22923;DHT22;11627;51.322;22.816;2023-05-20T04:43:48;12.30;99.90
22923;DHT22;11627;51.322;22.816;2023-05-20T04:46:15;12.40;99.90
22923;DHT22;11627;51.322;22.816;2023-05-20T04:48:41;12.50;99.90
22923;DHT22;11627;51.322;22.816;2023-05-20T04:51:08;12.60;99.90
22923;DHT22;11627;51.322;22.816;2023-05-20T04:53:34;12.70;99.90
22923;DHT22;11627;51.322;22.816;2023-05-20T04:56:01;12.90;99.90
22923;DHT22;11627;51.322;22.816;2023-05-20T04:58:27;13.00;99.90
22923;DHT22;11627;51.322;22.816;2023-05-20T05:00:54;13.10;99.90
22923;DHT22;11627;51.322;22.816;2023-05-20T05:03:21;13.30;99.90
22923;DHT22;11627;51.322;22.816;2023-05-20T05:05:47;13.40;99.90
22923;DHT22;11627;51.322;22.816;2023-05-20T05:08:12;13.50;99.90
22923;DHT22;11627;51.322;22.816;2023-05-20T05:10:38;13.60;99.90
22923;DHT22;11627;51.322;22.816;2023-05-20T05:13:04;13.60;99.90
22923;DHT22;11627;51.322;22.816;2023-05-20T05:15:30;13.70;99.90
22923;DHT22;11627;51.322;22.816;2023-05-20T05:17:56;13.70;99.90
22923;DHT22;11627;51.322;22.816;2023-05-20T05:20:22;13.70;99.90
22923;DHT22;11627;51.322;22.816;2023-05-20T05:22:47;13.80;99.90
22923;DHT22;11627;51.322;22.816;2023-05-20T05:25:15;13.90;99.90
22923;DHT22;11627;51.322;22.816;2023-05-20T05:27:41;13.90;99.90
22923;DHT22;11627;51.322;22.816;2023-05-20T05:30:09;14.00;99.90
22923;DHT22;11627;51.322;22.816;2023-05-20T05:32:35;14.10;99.90
22923;DHT22;11627;51.322;22.816;2023-05-20T05:35:01;14.20;99.90
22923;DHT22;11627;51.322;22.816;2023-05-20T05:37:27;14.30;99.90
22923;DHT22;11627;51.322;22.816;2023-05-20T05:39:53;14.40;99.90
22923;DHT22;11627;51.322;22.816;2023-05-20T05:42:18;14.40;99.90
22923;DHT22;11627;51.322;22.816;2023-05-20T05:44:44;14.60;99.90
22923;DHT22;11627;51.322;22.816;2023-05-20T05:47:10;14.60;99.90
22923;DHT22;11627;51.322;22.816;2023-05-20T05:49:36;14.80;99.90
22923;DHT22;11627;51.322;22.816;2023-05-20T05:52:02;14.80;99.90
22923;DHT22;11627;51.322;22.816;2023-05-20T05:54:28;15.00;99.90
22923;DHT22;11627;51.322;22.816;2023-05-20T05:56:54;15.10;99.90
22923;DHT22;11627;51.322;22.816;2023-05-20T05:59:21;15.20;99.90
22923;DHT22;11627;51.322;22.816;2023-05-20T06:01:47;15.20;99.90
22923;DHT22;11627;51.322;22.816;2023-05-20T06:04:13;15.40;99.90
22923;DHT22;11627;51.322;22.816;2023-05-20T06:06:39;15.50;99.90
22923;DHT22;11627;51.322;22.816;2023-05-20T06:09:05;15.60;99.90
22923;DHT22;11627;51.322;22.816;2023-05-20T06:11:31;15.70;99.90
22923;DHT22;11627;51.322;22.816;2023-05-20T06:13:56;15.80;99.90
22923;DHT22;11627;51.322;22.816;2023-05-20T06:16:23;15.80;99.90
22923;DHT22;11627;51.322;22.816;2023-05-20T06:18:48;16.00;99.90
22923;DHT22;11627;51.322;22.816;2023-05-20T06:21:21;16.10;99.90
22923;DHT22;11627;51.322;22.816;2023-05-20T06:23:47;16.20;99.90
22923;DHT22;11627;51.322;22.816;2023-05-20T06:26:13;16.30;99.90
22923;DHT22;11627;51.322;22.816;2023-05-20T06:28:38;16.40;99.90
22923;DHT22;11627;51.322;22.816;2023-05-20T06:31:04;16.40;99.90
22923;DHT22;11627;51.322;22.816;2023-05-20T06:33:30;16.50;99.90
22923;DHT22;11627;51.322;22.816;2023-05-20T06:35:56;16.60;99.90
22923;DHT22;11627;51.322;22.816;2023-05-20T06:38:22;16.70;99.90
22923;DHT22;11627;51.322;22.816;2023-05-20T06:40:48;16.70;99.90
22923;DHT22;11627;51.322;22.816;2023-05-20T06:43:17;16.80;99.90
22923;DHT22;11627;51.322;22.816;2023-05-20T06:45:43;16.90;99.90
22923;DHT22;11627;51.322;22.816;2023-05-20T06:48:09;16.90;99.90
22923;DHT22;11627;51.322;22.816;2023-05-20T06:50:35;17.00;99.90
22923;DHT22;11627;51.322;22.816;2023-05-20T06:53:01;17.10;99.90
22923;DHT22;11627;51.322;22.816;2023-05-20T06:55:27;17.20;99.90
22923;DHT22;11627;51.322;22.816;2023-05-20T06:57:53;17.30;99.90
22923;DHT22;11627;51.322;22.816;2023-05-20T07:00:18;17.30;99.90
22923;DHT22;11627;51.322;22.816;2023-05-20T07:02:44;17.50;99.90
22923;DHT22;11627;51.322;22.816;2023-05-20T07:05:10;17.40;99.90
22923;DHT22;11627;51.322;22.816;2023-05-20T07:07:36;17.50;99.90
22923;DHT22;11627;51.322;22.816;2023-05-20T07:10:02;17.50;99.90
22923;DHT22;11627;51.322;22.816;2023-05-20T07:12:30;17.60;99.90
22923;DHT22;11627;51.322;22.816;2023-05-20T07:14:56;17.70;99.90
22923;DHT22;11627;51.322;22.816;2023-05-20T07:17:22;17.70;99.90
22923;DHT22;11627;51.322;22.816;2023-05-20T07:19:49;17.90;99.90
22923;DHT22;11627;51.322;22.816;2023-05-20T07:22:14;18.00;99.90
22923;DHT22;11627;51.322;22.816;2023-05-20T07:24:40;18.00;99.90
22923;DHT22;11627;51.322;22.816;2023-05-20T07:27:06;18.20;99.90
22923;DHT22;11627;51.322;22.816;2023-05-20T07:29:32;18.30;99.90
22923;DHT22;11627;51.322;22.816;2023-05-20T07:31:57;18.40;99.90
22923;DHT22;11627;51.322;22.816;2023-05-20T07:34:23;18.40;99.90
22923;DHT22;11627;51.322;22.816;2023-05-20T07:36:49;18.40;99.90
22923;DHT22;11627;51.322;22.816;2023-05-20T07:39:15;18.50;99.90
22923;DHT22;11627;51.322;22.816;2023-05-20T07:41:41;18.60;99.90
22923;DHT22;11627;51.322;22.816;2023-05-20T07:44:07;18.60;99.90
22923;DHT22;11627;51.322;22.816;2023-05-20T07:46:33;18.80;99.90
22923;DHT22;11627;51.322;22.816;2023-05-20T07:48:59;18.80;99.90
22923;DHT22;11627;51.322;22.816;2023-05-20T07:51:25;18.90;99.90
22923;DHT22;11627;51.322;22.816;2023-05-20T07:53:51;18.90;99.90
22923;DHT22;11627;51.322;22.816;2023-05-20T07:56:17;19.00;99.90
22923;DHT22;11627;51.322;22.816;2023-05-20T07:58:51;19.10;99.90
22923;DHT22;11627;51.322;22.816;2023-05-20T08:01:16;19.10;99.90
22923;DHT22;11627;51.322;22.816;2023-05-20T08:03:42;19.20;99.90
22923;DHT22;11627;51.322;22.816;2023-05-20T08:06:08;19.30;99.90
22923;DHT22;11627;51.322;22.816;2023-05-20T08:08:33;19.40;99.90
22923;DHT22;11627;51.322;22.816;2023-05-20T08:11:01;19.40;99.90
22923;DHT22;11627;51.322;22.816;2023-05-20T08:13:26;19.50;99.90
22923;DHT22;11627;51.322;22.816;2023-05-20T08:15:55;19.50;99.90
22923;DHT22;11627;51.322;22.816;2023-05-20T08:18:22;19.50;99.90
22923;DHT22;11627;51.322;22.816;2023-05-20T08:20:47;19.50;99.90
22923;DHT22;11627;51.322;22.816;2023-05-20T08:23:13;19.60;99.90
22923;DHT22;11627;51.322;22.816;2023-05-20T08:25:39;19.70;99.90
22923;DHT22;11627;51.322;22.816;2023-05-20T08:28:05;19.80;99.90
22923;DHT22;11627;51.322;22.816;2023-05-20T08:30:31;20.00;99.90
22923;DHT22;11627;51.322;22.816;2023-05-20T08:32:58;20.00;99.90
22923;DHT22;11627;51.322;22.816;2023-05-20T08:35:24;20.10;99.90
22923;DHT22;11627;51.322;22.816;2023-05-20T08:37:50;20.30;99.90
22923;DHT22;11627;51.322;22.816;2023-05-20T08:40:19;20.40;99.90
22923;DHT22;11627;51.322;22.816;2023-05-20T08:42:47;20.50;99.90
22923;DHT22;11627;51.322;22.816;2023-05-20T08:45:16;20.60;99.90
22923;DHT22;11627;51.322;22.816;2023-05-20T08:47:42;20.70;99.90
22923;DHT22;11627;51.322;22.816;2023-05-20T08:50:09;20.80;99.90
22923;DHT22;11627;51.322;22.816;2023-05-20T08:52:37;21.00;99.90
22923;DHT22;11627;51.322;22.816;2023-05-20T08:55:06;21.00;99.70
22923;DHT22;11627;51.322;22.816;2023-05-20T08:57:34;21.10;99.10
22923;DHT22;11627;51.322;22.816;2023-05-20T09:00:01;21.10;99.90
22923;DHT22;11627;51.322;22.816;2023-05-20T09:02:36;21.20;99.90
22923;DHT22;11627;51.322;22.816;2023-05-20T09:05:03;21.30;99.90
22923;DHT22;11627;51.322;22.816;2023-05-20T09:07:29;21.40;99.90
22923;DHT22;11627;51.322;22.816;2023-05-20T09:09:56;21.50;99.90
22923;DHT22;11627;51.322;22.816;2023-05-20T09:12:22;21.60;98.20
22923;DHT22;11627;51.322;22.816;2023-05-20T09:14:48;21.60;98.80
22923;DHT22;11627;51.322;22.816;2023-05-20T09:17:14;21.70;97.30
22923;DHT22;11627;51.322;22.816;2023-05-20T09:19:40;21.80;96.20
22923;DHT22;11627;51.322;22.816;2023-05-20T09:22:06;21.90;91.00
22923;DHT22;11627;51.322;22.816;2023-05-20T09:24:31;22.00;92.90
22923;DHT22;11627;51.322;22.816;2023-05-20T09:26:57;22.10;92.40
22923;DHT22;11627;51.322;22.816;2023-05-20T09:29:25;22.20;90.40
22923;DHT22;11627;51.322;22.816;2023-05-20T09:31:51;22.30;88.00
22923;DHT22;11627;51.322;22.816;2023-05-20T09:34:19;22.30;89.00
22923;DHT22;11627;51.322;22.816;2023-05-20T09:36:48;22.30;90.60
22923;DHT22;11627;51.322;22.816;2023-05-20T09:39:17;22.40;88.70
22923;DHT22;11627;51.322;22.816;2023-05-20T09:42:11;22.50;91.90
22923;DHT22;11627;51.322;22.816;2023-05-20T09:44:39;22.60;88.40
22923;DHT22;11627;51.322;22.816;2023-05-20T09:47:05;22.70;83.10
22923;DHT22;11627;51.322;22.816;2023-05-20T09:49:34;22.80;80.60
22923;DHT22;11627;51.322;22.816;2023-05-20T09:52:02;22.80;73.70
22923;DHT22;11627;51.322;22.816;2023-05-20T09:54:29;22.90;65.30
22923;DHT22;11627;51.322;22.816;2023-05-20T09:56:57;23.00;53.50
22923;DHT22;11627;51.322;22.816;2023-05-20T09:59:24;23.00;54.40
22923;DHT22;11627;51.322;22.816;2023-05-20T10:01:51;23.10;44.90
22923;DHT22;11627;51.322;22.816;2023-05-20T10:04:18;23.20;42.40
22923;DHT22;11627;51.322;22.816;2023-05-20T10:09:58;23.40;22.60
22923;DHT22;11627;51.322;22.816;2023-05-20T10:12:39;23.50;28.20
22923;DHT22;11627;51.322;22.816;2023-05-20T10:20:47;23.60;42.00
22923;DHT22;11627;51.322;22.816;2023-05-20T10:23:26;23.60;34.50
22923;DHT22;11627;51.322;22.816;2023-05-20T10:25:53;23.70;39.50
22923;DHT22;11627;51.322;22.816;2023-05-20T10:28:34;23.60;40.40
22923;DHT22;11627;51.322;22.816;2023-05-20T10:31:01;23.60;37.30
22923;DHT22;11627;51.322;22.816;2023-05-20T10:33:28;23.60;33.90
22923;DHT22;11627;51.322;22.816;2023-05-20T10:35:57;23.60;32.80
22923;DHT22;11627;51.322;22.816;2023-05-20T10:38:23;23.80;32.50
22923;DHT22;11627;51.322;22.816;2023-05-20T10:40:50;23.80;31.70
22923;DHT22;11627;51.322;22.816;2023-05-20T10:43:25;23.90;29.60
22923;DHT22;11627;51.322;22.816;2023-05-20T10:45:53;24.00;31.60
22923;DHT22;11627;51.322;22.816;2023-05-20T10:50:46;24.30;28.00
22923;DHT22;11627;51.322;22.816;2023-05-20T10:53:13;24.50;27.90
22923;DHT22;11627;51.322;22.816;2023-05-20T10:55:45;24.60;26.30
22923;DHT22;11627;51.322;22.816;2023-05-20T10:58:13;24.60;25.70
22923;DHT22;11627;51.322;22.816;2023-05-20T11:00:39;24.50;26.90
22923;DHT22;11627;51.322;22.816;2023-05-20T11:03:06;24.30;26.90
22923;DHT22;11627;51.322;22.816;2023-05-20T11:05:32;24.10;27.70
22923;DHT22;11627;51.322;22.816;2023-05-20T11:08:02;23.90;28.00
22923;DHT22;11627;51.322;22.816;2023-05-20T11:10:28;23.80;27.00
22923;DHT22;11627;51.322;22.816;2023-05-20T11:12:56;23.60;15.60
22923;DHT22;11627;51.322;22.816;2023-05-20T11:15:22;23.50;9.30
22923;DHT22;11627;51.322;22.816;2023-05-20T11:17:55;23.50;8.30
22923;DHT22;11627;51.322;22.816;2023-05-20T11:20:22;23.30;9.00
22923;DHT22;11627;51.322;22.816;2023-05-20T11:22:50;23.30;7.80
22923;DHT22;11627;51.322;22.816;2023-05-20T11:25:16;23.20;6.10
22923;DHT22;11627;51.322;22.816;2023-05-20T11:27:43;23.20;5.90
22923;DHT22;11627;51.322;22.816;2023-05-20T11:30:10;23.30;9.20
22923;DHT22;11627;51.322;22.816;2023-05-20T11:32:37;23.20;4.50
22923;DHT22;11627;51.322;22.816;2023-05-20T11:35:04;23.30;4.30
22923;DHT22;11627;51.322;22.816;2023-05-20T11:37:30;23.10;4.60
22923;DHT22;11627;51.322;22.816;2023-05-20T11:40:03;23.10;3.60
22923;DHT22;11627;51.322;22.816;2023-05-20T11:42:33;23.10;5.70
22923;DHT22;11627;51.322;22.816;2023-05-20T11:44:59;23.10;1.00
22923;DHT22;11627;51.322;22.816;2023-05-20T11:47:25;23.10;1.00
22923;DHT22;11627;51.322;22.816;2023-05-20T11:49:55;23.10;1.00
22923;DHT22;11627;51.322;22.816;2023-05-20T11:52:21;23.20;1.00
22923;DHT22;11627;51.322;22.816;2023-05-20T11:54:53;23.20;1.00
22923;DHT22;11627;51.322;22.816;2023-05-20T11:57:18;23.20;1.00
22923;DHT22;11627;51.322;22.816;2023-05-20T11:59:46;23.10;1.00
22923;DHT22;11627;51.322;22.816;2023-05-20T12:02:12;23.20;1.00
22923;DHT22;11627;51.322;22.816;2023-05-20T12:04:37;23.20;1.00
22923;DHT22;11627;51.322;22.816;2023-05-20T12:07:03;23.10;1.00
22923;DHT22;11627;51.322;22.816;2023-05-20T12:09:33;23.10;1.00
22923;DHT22;11627;51.322;22.816;2023-05-20T12:11:59;23.10;1.00
22923;DHT22;11627;51.322;22.816;2023-05-20T12:14:25;23.10;1.00
22923;DHT22;11627;51.322;22.816;2023-05-20T12:16:51;23.10;1.00
22923;DHT22;11627;51.322;22.816;2023-05-20T12:19:18;23.30;1.00
22923;DHT22;11627;51.322;22.816;2023-05-20T12:21:44;23.50;1.00
22923;DHT22;11627;51.322;22.816;2023-05-20T12:24:11;23.70;3.60
22923;DHT22;11627;51.322;22.816;2023-05-20T12:26:37;23.90;15.90
22923;DHT22;11627;51.322;22.816;2023-05-20T12:29:03;24.00;18.90
22923;DHT22;11627;51.322;22.816;2023-05-20T12:31:28;24.10;20.10
22923;DHT22;11627;51.322;22.816;2023-05-20T12:33:54;24.10;13.70
22923;DHT22;11627;51.322;22.816;2023-05-20T12:36:20;24.10;15.80
22923;DHT22;11627;51.322;22.816;2023-05-20T12:38:46;24.10;18.20
22923;DHT22;11627;51.322;22.816;2023-05-20T12:41:12;24.10;18.50
22923;DHT22;11627;51.322;22.816;2023-05-20T12:43:37;24.20;16.00
22923;DHT22;11627;51.322;22.816;2023-05-20T12:46:04;24.20;15.00
22923;DHT22;11627;51.322;22.816;2023-05-20T12:48:30;24.30;10.20
22923;DHT22;11627;51.322;22.816;2023-05-20T12:50:56;24.30;13.00
22923;DHT22;11627;51.322;22.816;2023-05-20T12:53:21;24.30;11.80
22923;DHT22;11627;51.322;22.816;2023-05-20T12:55:47;24.40;11.00
22923;DHT22;11627;51.322;22.816;2023-05-20T12:58:13;24.40;9.70
22923;DHT22;11627;51.322;22.816;2023-05-20T13:00:38;24.40;11.40
22923;DHT22;11627;51.322;22.816;2023-05-20T13:03:04;24.40;11.70
22923;DHT22;11627;51.322;22.816;2023-05-20T13:05:30;24.40;14.90
22923;DHT22;11627;51.322;22.816;2023-05-20T13:07:56;24.50;13.50
22923;DHT22;11627;51.322;22.816;2023-05-20T13:10:22;24.50;10.80
22923;DHT22;11627;51.322;22.816;2023-05-20T13:12:47;24.50;11.50
22923;DHT22;11627;51.322;22.816;2023-05-20T13:15:13;24.60;13.30
22923;DHT22;11627;51.322;22.816;2023-05-20T13:17:40;24.70;12.60
22923;DHT22;11627;51.322;22.816;2023-05-20T13:20:07;24.90;8.80
22923;DHT22;11627;51.322;22.816;2023-05-20T13:22:33;25.10;9.20
22923;DHT22;11627;51.322;22.816;2023-05-20T13:24:59;25.10;9.00
22923;DHT22;11627;51.322;22.816;2023-05-20T13:27:25;25.10;12.50
22923;DHT22;11627;51.322;22.816;2023-05-20T13:29:51;25.10;11.00
22923;DHT22;11627;51.322;22.816;2023-05-20T13:32:17;25.20;10.40
22923;DHT22;11627;51.322;22.816;2023-05-20T13:34:43;25.20;11.50
22923;DHT22;11627;51.322;22.816;2023-05-20T13:37:08;25.20;9.60
22923;DHT22;11627;51.322;22.816;2023-05-20T13:39:34;25.40;9.20
22923;DHT22;11627;51.322;22.816;2023-05-20T13:42:00;25.40;13.00
22923;DHT22;11627;51.322;22.816;2023-05-20T13:44:26;25.50;10.20
22923;DHT22;11627;51.322;22.816;2023-05-20T13:46:52;25.50;8.30
22923;DHT22;11627;51.322;22.816;2023-05-20T13:49:18;25.50;9.40
22923;DHT22;11627;51.322;22.816;2023-05-20T13:51:44;25.50;8.90
22923;DHT22;11627;51.322;22.816;2023-05-20T13:54:10;25.50;10.50
22923;DHT22;11627;51.322;22.816;2023-05-20T13:56:36;25.40;8.80
22923;DHT22;11627;51.322;22.816;2023-05-20T13:59:02;25.20;6.60
22923;DHT22;11627;51.322;22.816;2023-05-20T14:01:29;25.00;6.80
22923;DHT22;11627;51.322;22.816;2023-05-20T14:03:57;25.00;6.50
22923;DHT22;11627;51.322;22.816;2023-05-20T14:06:24;24.90;6.10
22923;DHT22;11627;51.322;22.816;2023-05-20T14:08:53;24.80;7.20
22923;DHT22;11627;51.322;22.816;2023-05-20T14:11:18;24.70;5.30
22923;DHT22;11627;51.322;22.816;2023-05-20T14:13:45;24.60;6.10
22923;DHT22;11627;51.322;22.816;2023-05-20T14:16:11;24.50;4.70
22923;DHT22;11627;51.322;22.816;2023-05-20T14:18:37;24.50;5.30
22923;DHT22;11627;51.322;22.816;2023-05-20T14:21:03;24.30;5.70
22923;DHT22;11627;51.322;22.816;2023-05-20T14:23:28;24.30;4.70
22923;DHT22;11627;51.322;22.816;2023-05-20T14:25:54;24.20;5.70
22923;DHT22;11627;51.322;22.816;2023-05-20T14:28:20;24.10;4.60
22923;DHT22;11627;51.322;22.816;2023-05-20T14:30:46;24.10;3.30
22923;DHT22;11627;51.322;22.816;2023-05-20T14:33:11;24.00;2.90
22923;DHT22;11627;51.322;22.816;2023-05-20T14:35:37;23.90;4.00
22923;DHT22;11627;51.322;22.816;2023-05-20T14:38:03;24.00;2.00
22923;DHT22;11627;51.322;22.816;2023-05-20T14:40:28;23.90;1.40
22923;DHT22;11627;51.322;22.816;2023-05-20T14:42:54;23.90;3.60
22923;DHT22;11627;51.322;22.816;2023-05-20T14:45:20;23.80;4.40
22923;DHT22;11627;51.322;22.816;2023-05-20T14:47:45;23.80;3.60
22923;DHT22;11627;51.322;22.816;2023-05-20T14:50:11;23.80;3.80
22923;DHT22;11627;51.322;22.816;2023-05-20T14:52:37;23.80;1.50
22923;DHT22;11627;51.322;22.816;2023-05-20T14:55:03;23.70;1.90
22923;DHT22;11627;51.322;22.816;2023-05-20T14:57:29;23.70;1.10
22923;DHT22;11627;51.322;22.816;2023-05-20T14:59:55;23.60;2.70
22923;DHT22;11627;51.322;22.816;2023-05-20T15:02:20;23.50;2.00
22923;DHT22;11627;51.322;22.816;2023-05-20T15:04:46;23.50;1.50
22923;DHT22;11627;51.322;22.816;2023-05-20T15:07:16;23.50;2.70
22923;DHT22;11627;51.322;22.816;2023-05-20T15:09:41;23.50;1.30
22923;DHT22;11627;51.322;22.816;2023-05-20T15:12:09;23.40;1.00
22923;DHT22;11627;51.322;22.816;2023-05-20T15:14:35;23.40;1.00
22923;DHT22;11627;51.322;22.816;2023-05-20T15:17:02;23.40;1.00
22923;DHT22;11627;51.322;22.816;2023-05-20T15:19:27;23.50;1.00
22923;DHT22;11627;51.322;22.816;2023-05-20T15:21:53;23.40;1.00
22923;DHT22;11627;51.322;22.816;2023-05-20T15:24:19;23.40;1.00
22923;DHT22;11627;51.322;22.816;2023-05-20T15:26:45;23.40;1.00
22923;DHT22;11627;51.322;22.816;2023-05-20T15:29:11;23.40;1.00